createdAt,value
2022-12-11T00:00:44.043Z,83.58
2022-12-11T00:03:15.661Z,83.16
2022-12-11T00:05:43.466Z,83.57
2022-12-11T00:08:09.898Z,83.96
2022-12-11T00:10:38.050Z,84.32
2022-12-11T00:13:04.963Z,84.45
2022-12-11T00:15:31.467Z,84.81
2022-12-11T00:17:57.814Z,84.03
2022-12-11T00:20:24.290Z,83.75
2022-12-11T00:22:50.609Z,84.18
2022-12-11T00:25:17.035Z,84.32
2022-12-11T00:27:46.058Z,84.35
2022-12-11T00:30:13.010Z,84.90
2022-12-11T00:32:39.349Z,85.22
2022-12-11T00:35:05.970Z,85.42
2022-12-11T00:37:32.398Z,85.88
2022-12-11T00:39:58.847Z,85.44
2022-12-11T00:42:25.136Z,85.40
2022-12-11T00:44:51.553Z,85.59
2022-12-11T00:47:17.841Z,85.65
2022-12-11T00:49:49.581Z,86.06
2022-12-11T00:52:17.671Z,85.43
2022-12-11T00:54:46.487Z,84.84
2022-12-11T00:57:12.768Z,84.82
2022-12-11T00:59:39.337Z,84.45
2022-12-11T01:02:05.634Z,83.93
2022-12-11T01:04:32.153Z,83.85
2022-12-11T01:06:58.499Z,82.20
2022-12-11T01:09:43.666Z,81.98
2022-12-11T01:12:10.045Z,82.34
2022-12-11T01:14:36.421Z,82.68
2022-12-11T01:17:02.805Z,83.27
2022-12-11T01:19:29.358Z,83.52
2022-12-11T01:21:55.772Z,83.98
2022-12-11T01:24:22.354Z,82.88
2022-12-11T01:26:48.685Z,82.31
2022-12-11T01:29:15.062Z,82.49
2022-12-11T01:31:41.455Z,82.36
2022-12-11T01:34:07.788Z,82.90
2022-12-11T01:36:34.081Z,83.13
2022-12-11T01:39:00.641Z,83.64
2022-12-11T01:41:27.077Z,84.03
2022-12-11T01:44:28.594Z,84.74
2022-12-11T01:46:54.865Z,85.03
2022-12-11T01:49:25.228Z,85.29
2022-12-11T01:52:15.192Z,85.18
2022-12-11T01:54:43.431Z,85.52
2022-12-11T01:57:12.335Z,85.81
2022-12-11T01:59:41.022Z,86.11
2022-12-11T02:02:22.431Z,86.57
2022-12-11T02:04:49.333Z,86.81
2022-12-11T02:07:15.757Z,87.05
2022-12-11T02:09:45.775Z,87.13
2022-12-11T02:12:30.137Z,87.52
2022-12-11T02:15:11.994Z,87.58
2022-12-11T02:18:07.419Z,88.07
2022-12-11T02:20:37.557Z,88.11
2022-12-11T02:23:24.985Z,87.90
2022-12-11T02:26:00.182Z,87.86
2022-12-11T02:28:41.199Z,87.22
2022-12-11T02:31:19.279Z,87.42
2022-12-11T02:34:15.364Z,87.59
2022-12-11T02:36:45.349Z,87.81
2022-12-11T02:39:14.933Z,87.95
2022-12-11T02:41:46.873Z,88.08
2022-12-11T02:44:15.903Z,88.00
2022-12-11T02:46:44.218Z,88.03
2022-12-11T02:49:12.570Z,88.37
2022-12-11T02:51:43.418Z,88.17
2022-12-11T02:54:18.039Z,88.49
2022-12-11T02:56:56.418Z,88.19
2022-12-11T02:59:45.352Z,87.84
2022-12-11T03:02:13.703Z,87.83
2022-12-11T03:04:41.078Z,87.25
2022-12-11T03:07:12.209Z,87.01
2022-12-11T03:09:40.308Z,87.10
2022-12-11T03:12:09.888Z,86.87
2022-12-11T03:14:38.403Z,86.98
2022-12-11T03:17:23.870Z,87.21
2022-12-11T03:19:58.210Z,86.54
2022-12-11T03:22:33.798Z,86.41
2022-12-11T03:25:05.200Z,86.41
2022-12-11T03:27:42.212Z,86.41
2022-12-11T03:30:14.115Z,86.24
2022-12-11T03:32:58.008Z,86.24
2022-12-11T03:35:35.554Z,86.06
2022-12-11T03:38:07.566Z,85.74
2022-12-11T03:40:36.434Z,85.68
2022-12-11T03:43:04.807Z,85.49
2022-12-11T03:45:33.365Z,85.42
2022-12-11T03:48:01.823Z,85.08
2022-12-11T03:50:31.657Z,84.51
2022-12-11T03:52:58.587Z,84.48
2022-12-11T03:55:26.491Z,84.95
2022-12-11T03:57:52.953Z,85.52
2022-12-11T04:00:21.744Z,85.58
2022-12-11T04:03:11.331Z,84.77
2022-12-11T04:05:48.621Z,84.83
2022-12-11T04:08:16.036Z,84.78
2022-12-11T04:10:43.082Z,85.26
2022-12-11T04:13:10.520Z,85.63
2022-12-11T04:15:38.306Z,85.21
2022-12-11T04:18:23.845Z,84.42
2022-12-11T04:21:12.093Z,84.68
2022-12-11T04:23:56.798Z,84.77
2022-12-11T04:26:23.154Z,85.14
2022-12-11T04:28:50.371Z,85.67
2022-12-11T04:31:21.918Z,85.57
2022-12-11T04:33:48.929Z,85.98
2022-12-11T04:36:15.986Z,85.72
2022-12-11T04:38:42.305Z,85.12
2022-12-11T04:41:12.231Z,84.96
2022-12-11T04:43:39.055Z,84.69
2022-12-11T04:46:20.657Z,85.19
2022-12-11T04:48:51.184Z,85.39
2022-12-11T04:51:20.409Z,85.47
2022-12-11T04:53:46.797Z,85.57
2022-12-11T04:56:15.734Z,85.31
2022-12-11T04:58:43.354Z,85.28
2022-12-11T05:01:13.063Z,85.22
2022-12-11T05:03:40.479Z,85.54
2022-12-11T05:06:08.607Z,85.20
2022-12-11T05:08:36.659Z,85.13
2022-12-11T05:11:05.573Z,85.57
2022-12-11T05:13:32.368Z,85.58
2022-12-11T05:15:59.245Z,85.83
2022-12-11T05:18:30.655Z,85.85
2022-12-11T05:21:01.895Z,86.18
2022-12-11T05:23:29.240Z,86.40
2022-12-11T05:26:01.915Z,86.65
2022-12-11T05:28:30.042Z,86.92
2022-12-11T05:30:57.703Z,87.06
2022-12-11T05:33:24.981Z,86.42
2022-12-11T05:35:51.685Z,85.78
2022-12-11T05:38:18.345Z,85.78
2022-12-11T05:40:45.014Z,85.76
2022-12-11T05:43:11.359Z,85.92
2022-12-11T05:45:38.271Z,86.33
2022-12-11T05:48:04.715Z,85.55
2022-12-11T05:50:30.989Z,85.20
2022-12-11T05:52:57.346Z,85.61
2022-12-11T05:55:23.638Z,85.75
2022-12-11T05:57:49.910Z,85.57
2022-12-11T06:00:16.501Z,85.66
2022-12-11T06:02:43.035Z,85.80
2022-12-11T06:05:09.878Z,85.63
2022-12-11T06:07:36.279Z,85.92
2022-12-11T06:10:02.585Z,86.05
2022-12-11T06:12:29.745Z,86.51
2022-12-11T06:14:56.320Z,86.55
2022-12-11T06:17:22.722Z,86.72
2022-12-11T06:19:49.018Z,86.62
2022-12-11T06:22:15.334Z,86.44
2022-12-11T06:24:41.692Z,86.84
2022-12-11T06:27:08.157Z,86.26
2022-12-11T06:29:34.635Z,86.17
2022-12-11T06:32:01.020Z,86.85
2022-12-11T06:34:27.437Z,86.32
2022-12-11T06:36:53.701Z,86.45
2022-12-11T06:39:20.252Z,86.41
2022-12-11T06:41:46.589Z,86.37
2022-12-11T06:44:12.942Z,86.35
2022-12-11T06:46:39.299Z,86.00
2022-12-11T06:49:05.599Z,85.55
2022-12-11T06:51:32.691Z,84.73
2022-12-11T06:53:59.016Z,84.68
2022-12-11T06:56:25.423Z,84.72
2022-12-11T06:58:52.341Z,84.74
2022-12-11T07:01:23.040Z,84.07
2022-12-11T07:03:52.047Z,84.35
2022-12-11T07:06:18.378Z,84.73
2022-12-11T07:08:45.423Z,84.76
2022-12-11T07:11:14.142Z,85.72
2022-12-11T07:13:42.097Z,86.00
2022-12-11T07:16:12.986Z,85.41
2022-12-11T07:18:43.933Z,85.23
2022-12-11T07:21:14.186Z,85.41
2022-12-11T07:23:40.839Z,84.03
2022-12-11T07:26:09.728Z,84.29
2022-12-11T07:28:36.484Z,84.21
2022-12-11T07:31:07.566Z,84.00
2022-12-11T07:33:34.544Z,84.53
2022-12-11T07:36:04.340Z,84.45
2022-12-11T07:38:30.815Z,84.04
2022-12-11T07:41:01.703Z,84.32
2022-12-11T07:43:28.258Z,84.45
2022-12-11T07:45:54.601Z,84.83
2022-12-11T07:48:20.926Z,84.63
2022-12-11T07:50:47.283Z,84.92
2022-12-11T07:53:13.578Z,83.21
2022-12-11T07:55:39.906Z,83.38
2022-12-11T07:58:06.215Z,83.20
2022-12-11T08:00:32.567Z,83.30
2022-12-11T08:02:58.909Z,83.45
2022-12-11T08:05:25.221Z,83.76
2022-12-11T08:07:51.560Z,83.97
2022-12-11T08:10:18.137Z,83.89
2022-12-11T08:12:44.421Z,83.28
2022-12-11T08:15:11.597Z,83.94
2022-12-11T08:17:40.164Z,84.18
2022-12-11T08:20:08.186Z,83.11
2022-12-11T08:22:35.532Z,83.63
2022-12-11T08:25:02.065Z,83.83
2022-12-11T08:27:30.502Z,83.83
2022-12-11T08:29:56.827Z,82.75
2022-12-11T08:32:23.268Z,81.84
2022-12-11T08:34:51.409Z,81.67
2022-12-11T08:37:17.731Z,82.09
2022-12-11T08:39:44.916Z,81.52
2022-12-11T08:42:11.198Z,81.75
2022-12-11T08:44:37.580Z,82.22
2022-12-11T08:47:03.992Z,82.41
2022-12-11T08:49:34.422Z,82.91
2022-12-11T08:52:01.118Z,82.74
2022-12-11T08:54:27.414Z,82.67
2022-12-11T08:56:57.993Z,82.44
2022-12-11T08:59:25.649Z,82.51
2022-12-11T09:01:52.318Z,80.02
2022-12-11T09:04:18.695Z,80.34
2022-12-11T09:06:44.993Z,80.31
2022-12-11T09:09:11.337Z,80.20
2022-12-11T09:11:37.815Z,80.29
2022-12-11T09:14:07.823Z,80.14
2022-12-11T09:16:37.702Z,79.40
2022-12-11T09:19:04.251Z,77.47
2022-12-11T09:21:30.886Z,77.87
2022-12-11T09:24:00.065Z,76.49
2022-12-11T09:26:27.794Z,76.56
2022-12-11T09:28:54.824Z,75.95
2022-12-11T09:31:24.931Z,76.56
2022-12-11T09:33:56.294Z,77.12
2022-12-11T09:36:23.399Z,76.31
2022-12-11T09:38:49.875Z,76.85
2022-12-11T09:41:21.859Z,76.96
2022-12-11T09:44:12.968Z,76.52
2022-12-11T09:46:40.562Z,74.91
2022-12-11T09:49:24.901Z,74.66
2022-12-11T09:52:05.935Z,74.70
2022-12-11T09:54:32.864Z,75.01
2022-12-11T09:57:29.623Z,76.24
2022-12-11T10:00:13.746Z,75.84
2022-12-11T10:02:54.985Z,75.38
2022-12-11T10:06:02.679Z,76.24
2022-12-11T10:08:38.879Z,75.65
2022-12-11T10:11:30.218Z,75.75
2022-12-11T10:14:25.950Z,76.58
2022-12-11T10:16:57.723Z,76.16
2022-12-11T10:19:29.978Z,76.73
2022-12-11T10:21:57.750Z,76.46
2022-12-11T10:25:10.040Z,76.40
2022-12-11T10:27:34.979Z,76.65
2022-12-11T10:30:15.947Z,76.81
2022-12-11T10:32:53.440Z,76.86
2022-12-11T10:35:33.068Z,76.62
2022-12-11T10:38:12.032Z,77.17
2022-12-11T10:40:42.752Z,77.86
2022-12-11T10:43:09.055Z,77.79
2022-12-11T10:45:36.238Z,77.72
2022-12-11T10:48:13.158Z,77.86
2022-12-11T10:50:39.905Z,77.78
2022-12-11T10:53:06.213Z,77.51
2022-12-11T10:55:45.228Z,77.29
2022-12-11T10:58:24.083Z,77.39
2022-12-11T11:01:13.962Z,77.75
2022-12-11T11:03:58.655Z,78.22
2022-12-11T11:06:26.009Z,78.72
2022-12-11T11:08:55.202Z,79.22
2022-12-11T11:11:34.469Z,78.81
2022-12-11T11:14:18.087Z,78.97
2022-12-11T11:16:46.863Z,79.75
2022-12-11T11:19:27.011Z,79.91
2022-12-11T11:21:56.393Z,80.20
2022-12-11T11:24:53.696Z,79.40
2022-12-11T11:27:45.649Z,80.20
2022-12-11T11:30:56.511Z,79.96
2022-12-11T11:33:24.260Z,80.23
2022-12-11T11:35:53.534Z,80.18
2022-12-11T11:38:23.757Z,79.89
2022-12-11T11:41:15.549Z,80.21
2022-12-11T11:43:54.641Z,80.66
2022-12-11T11:46:46.059Z,80.24
2022-12-11T11:49:28.085Z,80.16
2022-12-11T11:52:08.118Z,79.85
2022-12-11T11:54:39.179Z,78.84
2022-12-11T11:57:32.910Z,78.84
2022-12-11T12:00:31.866Z,78.03
2022-12-11T12:03:10.511Z,76.97
2022-12-11T12:05:50.248Z,77.74
2022-12-11T12:08:25.619Z,77.75
2022-12-11T12:11:01.498Z,78.30
2022-12-11T12:13:50.407Z,78.83
2022-12-11T12:19:41.501Z,78.08
2022-12-11T12:22:35.695Z,78.36
2022-12-11T12:25:30.125Z,78.58
2022-12-11T12:28:03.788Z,78.37
2022-12-11T12:30:40.113Z,78.29
2022-12-11T12:33:34.654Z,77.35
2022-12-11T12:36:26.068Z,77.42
2022-12-11T12:39:21.129Z,77.64
2022-12-11T12:42:07.763Z,78.20
2022-12-11T12:44:47.274Z,78.68
2022-12-11T12:47:17.270Z,78.74
2022-12-11T12:49:49.165Z,79.19
2022-12-11T12:52:17.473Z,79.59
2022-12-11T12:55:07.190Z,79.32
2022-12-11T12:57:34.981Z,79.05
2022-12-11T13:00:01.353Z,79.21
2022-12-11T13:02:28.228Z,79.74
2022-12-11T13:05:07.333Z,79.68
2022-12-11T13:07:33.963Z,79.95
2022-12-11T13:10:29.201Z,79.97
2022-12-11T13:12:56.464Z,80.32
2022-12-11T13:15:41.060Z,79.84
2022-12-11T13:18:32.470Z,80.17
2022-12-11T13:20:59.201Z,79.52
2022-12-11T13:23:32.245Z,80.20
2022-12-11T13:26:04.207Z,79.82
2022-12-11T13:28:45.403Z,79.39
2022-12-11T13:31:14.492Z,79.66
2022-12-11T13:33:49.668Z,79.67
2022-12-11T13:36:24.086Z,79.19
2022-12-11T13:38:55.214Z,79.23
2022-12-11T13:41:22.379Z,78.75
2022-12-11T13:43:50.454Z,78.47
2022-12-11T13:46:25.226Z,79.52
2022-12-11T13:49:00.768Z,79.11
2022-12-11T13:51:30.201Z,79.65
2022-12-11T13:54:23.207Z,80.00
2022-12-11T13:57:15.239Z,80.02
2022-12-11T13:59:46.501Z,80.18
2022-12-11T14:02:22.038Z,79.76
2022-12-11T14:04:51.541Z,80.25
2022-12-11T14:07:26.868Z,80.75
2022-12-11T14:09:59.261Z,80.05
2022-12-11T14:12:25.820Z,80.10
2022-12-11T14:14:56.852Z,79.91
2022-12-11T14:17:26.753Z,80.10
2022-12-11T14:19:54.857Z,80.28
2022-12-11T14:22:24.194Z,80.67
2022-12-11T14:24:53.024Z,80.57
2022-12-11T14:27:20.105Z,80.59
2022-12-11T14:29:46.972Z,80.72
2022-12-11T14:32:20.370Z,80.72
2022-12-11T14:34:49.445Z,80.06
2022-12-11T14:37:17.693Z,79.93
2022-12-11T14:39:55.020Z,79.76
2022-12-11T14:42:31.039Z,80.26
2022-12-11T14:45:13.838Z,80.19
2022-12-11T14:47:43.495Z,80.67
2022-12-11T14:50:19.300Z,80.69
2022-12-11T14:52:58.371Z,80.79
2022-12-11T14:55:32.527Z,81.18
2022-12-11T14:58:03.093Z,81.34
2022-12-11T15:00:32.366Z,81.52
2022-12-11T15:03:02.082Z,81.88
2022-12-11T15:05:29.236Z,81.45
2022-12-11T15:07:59.939Z,81.34
2022-12-11T15:10:35.578Z,81.77
2022-12-11T15:13:03.534Z,81.86
2022-12-11T15:15:32.815Z,82.31
2022-12-11T15:18:02.980Z,82.53
2022-12-11T15:20:30.533Z,82.70
2022-12-11T15:23:01.039Z,82.37
2022-12-11T15:25:29.341Z,82.47
2022-12-11T15:27:59.571Z,82.63
2022-12-11T15:30:31.535Z,82.62
2022-12-11T15:33:09.796Z,82.73
2022-12-11T15:35:38.226Z,83.04
2022-12-11T15:38:04.950Z,83.22
2022-12-11T15:40:31.792Z,82.21
2022-12-11T15:43:02.003Z,81.58
2022-12-11T15:45:28.899Z,80.92
2022-12-11T15:47:55.543Z,81.09
2022-12-11T15:50:26.366Z,81.11
2022-12-11T15:52:54.533Z,80.57
2022-12-11T15:55:22.888Z,80.67
2022-12-11T15:57:54.097Z,81.00
2022-12-11T16:00:21.179Z,80.64
2022-12-11T16:02:48.013Z,80.25
2022-12-11T16:05:14.788Z,80.16
2022-12-11T16:07:41.406Z,79.93
2022-12-11T16:10:13.635Z,80.37
2022-12-11T16:12:39.961Z,80.44
2022-12-11T16:15:06.799Z,81.08
2022-12-11T16:17:33.173Z,81.38
2022-12-11T16:19:59.538Z,81.81
2022-12-11T16:22:25.865Z,81.90
2022-12-11T16:24:55.747Z,81.90
2022-12-11T16:27:23.327Z,82.32
2022-12-11T16:29:49.946Z,82.23
2022-12-11T16:32:16.427Z,81.86
2022-12-11T16:34:42.760Z,82.03
2022-12-11T16:37:15.662Z,82.05
2022-12-11T16:39:42.906Z,82.12
2022-12-11T16:42:09.218Z,82.40
2022-12-11T16:44:39.568Z,82.45
2022-12-11T16:47:08.755Z,82.51
2022-12-11T16:49:35.047Z,82.58
2022-12-11T16:52:01.364Z,82.64
2022-12-11T16:54:27.658Z,82.87
2022-12-11T16:56:53.966Z,83.03
2022-12-11T16:59:20.238Z,83.63
2022-12-11T17:01:46.657Z,83.34
2022-12-11T17:04:12.959Z,83.91
2022-12-11T17:06:39.286Z,82.84
2022-12-11T17:09:05.768Z,82.96
2022-12-11T17:11:32.156Z,83.30
2022-12-11T17:13:59.907Z,83.16
2022-12-11T17:16:29.038Z,83.16
2022-12-11T17:18:55.476Z,82.79
2022-12-11T17:21:22.438Z,83.19
2022-12-11T17:23:49.583Z,83.26
2022-12-11T17:26:16.818Z,83.53
2022-12-11T17:28:43.585Z,83.72
2022-12-11T17:31:14.195Z,82.51
2022-12-11T17:33:40.656Z,82.56
2022-12-11T17:36:08.358Z,82.97
2022-12-11T17:38:34.800Z,82.90
2022-12-11T17:41:06.068Z,82.75
2022-12-11T17:43:32.379Z,82.35
2022-12-11T17:45:58.751Z,82.83
2022-12-11T17:48:25.124Z,83.16
2022-12-11T17:50:52.707Z,83.50
2022-12-11T17:53:21.250Z,83.63
2022-12-11T17:55:48.747Z,84.01
2022-12-11T17:58:21.745Z,84.09
2022-12-11T18:00:51.105Z,84.39
2022-12-11T18:03:18.526Z,84.46
2022-12-11T18:05:47.902Z,84.24
2022-12-11T18:08:16.731Z,84.13
2022-12-11T18:10:43.997Z,83.83
2022-12-11T18:13:10.471Z,83.74
2022-12-11T18:15:37.750Z,83.99
2022-12-11T18:18:04.942Z,84.18
2022-12-11T18:20:33.155Z,84.47
2022-12-11T18:23:00.305Z,84.87
2022-12-11T18:25:27.052Z,84.99
2022-12-11T18:27:55.054Z,84.84
2022-12-11T18:30:23.058Z,85.13
2022-12-11T18:32:49.849Z,84.93
2022-12-11T18:35:16.680Z,84.87
2022-12-11T18:37:43.102Z,85.25
2022-12-11T18:40:11.911Z,84.99
2022-12-11T18:42:38.683Z,84.79
2022-12-11T18:45:06.797Z,85.04
2022-12-11T18:47:33.380Z,84.81
2022-12-11T18:50:05.574Z,84.81
2022-12-11T18:52:33.914Z,84.05
2022-12-11T18:55:00.208Z,84.04
2022-12-11T18:57:26.539Z,84.21
2022-12-11T18:59:53.417Z,84.40
2022-12-11T19:02:20.868Z,84.33
2022-12-11T19:04:47.277Z,84.24
2022-12-11T19:07:13.582Z,84.41
2022-12-11T19:09:43.498Z,84.49
2022-12-11T19:12:12.677Z,84.67
2022-12-11T19:14:39.551Z,84.91
2022-12-11T19:17:05.882Z,84.74
2022-12-11T19:19:32.284Z,84.53
2022-12-11T19:21:58.676Z,84.30
2022-12-11T19:24:25.539Z,84.38
2022-12-11T19:26:52.251Z,84.79
2022-12-11T19:29:28.072Z,84.08
2022-12-11T19:31:58.020Z,84.56
2022-12-11T19:34:25.402Z,84.36
2022-12-11T19:36:51.860Z,84.62
2022-12-11T19:39:19.580Z,84.81
2022-12-11T19:41:46.235Z,85.10
2022-12-11T19:44:12.636Z,85.50
2022-12-11T19:46:39.648Z,85.38
2022-12-11T19:49:06.205Z,85.53
2022-12-11T19:51:36.582Z,85.84
2022-12-11T19:54:04.389Z,85.37
2022-12-11T19:56:31.968Z,85.03
2022-12-11T19:59:00.533Z,84.43
2022-12-11T20:01:30.867Z,84.17
2022-12-11T20:04:00.305Z,84.96
2022-12-11T20:06:28.463Z,84.97
2022-12-11T20:08:54.883Z,84.78
2022-12-11T20:11:21.401Z,84.70
2022-12-11T20:13:48.776Z,85.00
2022-12-11T20:16:16.484Z,85.41
2022-12-11T20:18:43.081Z,85.41
2022-12-11T20:21:13.182Z,85.33
2022-12-11T20:23:39.698Z,85.02
2022-12-11T20:26:14.525Z,84.79
2022-12-11T20:28:41.496Z,84.56
2022-12-11T20:31:16.391Z,84.73
2022-12-11T20:33:46.564Z,84.90
2022-12-11T20:36:15.565Z,85.05
2022-12-11T20:38:42.021Z,85.12
2022-12-11T20:41:11.054Z,84.56
2022-12-11T20:43:38.799Z,84.45
2022-12-11T20:46:06.760Z,84.65
2022-12-11T20:48:33.752Z,83.83
2022-12-11T20:51:01.768Z,84.05
2022-12-11T20:53:31.015Z,84.06
2022-12-11T20:55:57.411Z,84.16
2022-12-11T20:58:23.794Z,83.76
2022-12-11T21:00:50.281Z,83.98
2022-12-11T21:03:16.984Z,84.45
2022-12-11T21:05:45.004Z,83.50
2022-12-11T21:08:12.208Z,84.39
2022-12-11T21:10:43.030Z,84.67
2022-12-11T21:13:09.442Z,84.56
2022-12-11T21:15:39.935Z,84.39
2022-12-11T21:18:07.725Z,84.82
2022-12-11T21:20:35.511Z,84.53
2022-12-11T21:23:02.842Z,85.08
2022-12-11T21:25:29.446Z,85.65
2022-12-11T21:27:55.859Z,85.44
2022-12-11T21:30:22.163Z,85.28
2022-12-11T21:32:48.581Z,85.17
2022-12-11T21:35:15.038Z,85.83
2022-12-11T21:37:41.772Z,86.14
2022-12-11T21:40:09.223Z,86.24
2022-12-11T21:42:35.564Z,86.74
2022-12-11T21:47:49.578Z,86.21
2022-12-11T21:50:16.608Z,86.33
2022-12-11T21:52:42.954Z,86.31
2022-12-11T21:55:11.998Z,85.95
2022-12-11T21:57:38.494Z,85.28
2022-12-11T22:00:05.773Z,85.62
2022-12-11T22:02:35.993Z,85.62
2022-12-11T22:05:05.994Z,85.50
2022-12-11T22:07:32.337Z,85.85
2022-12-11T22:09:58.651Z,85.61
2022-12-11T22:12:28.232Z,85.32
2022-12-11T22:14:54.582Z,85.67
2022-12-11T22:17:21.141Z,85.17
2022-12-11T22:19:47.562Z,84.96
2022-12-11T22:22:14.036Z,85.54
2022-12-11T22:24:40.955Z,85.74
2022-12-11T22:27:07.405Z,85.99
2022-12-11T22:29:34.790Z,85.86
2022-12-11T22:32:01.466Z,86.27
2022-12-11T22:34:27.741Z,86.05
2022-12-11T22:36:54.111Z,85.80
2022-12-11T22:39:20.547Z,85.89
2022-12-11T22:41:46.928Z,86.43
2022-12-11T22:44:16.992Z,86.56
2022-12-11T22:46:49.488Z,86.31
2022-12-11T22:49:16.558Z,86.13
2022-12-11T22:51:42.837Z,86.29
2022-12-11T22:54:09.402Z,86.11
2022-12-11T22:56:35.705Z,85.78
2022-12-11T22:59:02.286Z,85.68
2022-12-11T23:01:28.927Z,85.72
2022-12-11T23:03:55.267Z,86.23
2022-12-11T23:06:24.590Z,86.71
2022-12-11T23:08:52.760Z,87.17
2022-12-11T23:11:31.905Z,87.44
2022-12-11T23:13:58.321Z,88.07
2022-12-11T23:16:25.785Z,87.95
2022-12-11T23:18:53.042Z,87.98
2022-12-11T23:21:20.003Z,88.21
2022-12-11T23:23:46.375Z,88.47
2022-12-11T23:26:13.484Z,88.06
2022-12-11T23:28:41.313Z,88.00
2022-12-11T23:31:08.795Z,87.57
2022-12-11T23:33:35.207Z,87.51
2022-12-11T23:36:02.294Z,87.47
2022-12-11T23:38:28.952Z,87.66
2022-12-11T23:40:55.460Z,87.63
2022-12-11T23:43:22.278Z,87.68
2022-12-11T23:45:48.984Z,87.71
2022-12-11T23:48:15.565Z,87.57
2022-12-11T23:50:42.551Z,87.43
2022-12-11T23:53:09.311Z,87.79
2022-12-11T23:55:38.046Z,87.89
2022-12-11T23:58:04.378Z,88.43
